Aviation Digital Data Service (ADDS)

Output produced by METARs form (1826 UTC 16 August 2018)
found at http://www.aviationweather.gov/adds/metars/
 
FIMR 161800Z 10013KT 9999 SCT017 22/17 Q1024
TAF FIMR 161715Z 1618/1712 11018G30KT 9999 SCT018
       
FIMP 161800Z 12012KT 9999 VCSH SCT016 23/16 Q1025
TAF FIMP 161710Z 1618/1800 10015G25KT 9999 SCT017 
     PROB30 
     TEMPO 1700/1706 7000 -SHRA FEW010 BKN016 BKN050